Aérodrome :
LOGIN :

S'inscrire | Disclaimer

   EN    FR    IT 

 










Légende :    VFR   VFR Marginal   IFR   IFR Intensif   IFR Très Intensif
Visi : 
Plafond : 
>= 8 km
>= 3000ft
5 à 8 km
1000 à 3000 ft
1500m à 5 km
500 à 1000 ft
800 à 1500m
200 à 500 ft
< 800m
< 200 ft
Symboles :   Orages  Brouillard  Fortes neiges  Fortes précipitations  Vent > 20 kt
SIGMETs :   Divers  Orages  Givrage  Turbulence  Onde Orograph.  Cendres Volcan.







- Altitude de l'aérodrome : 162 ft
- Code IATA : BOD
- Voir les cartes d'approche


LFBD - Bordeaux / Merignac

DERNIER METAR :
  • 152200Z AUTO 23009KT 9999 SCT007 BKN011 BKN017 12/12 Q1015 TEMPO 4000 RA BKN008

METARs EXPIRÉS :
  • 152130Z AUTO 22007KT 9999 FEW012 BKN020 BKN029 11/11 Q1015 TEMPO 4000 RA BKN008
  • 152100Z AUTO 22004KT 7000 -RA OVC013 10/10 Q1015 TEMPO 4000 RA BKN008
  • 152030Z AUTO 18003KT 7000 -RADZ FEW018 BKN023 BKN056 10/10 Q1015 TEMPO 25010KT 4000 RA BKN008
  • 152000Z AUTO 13001KT 5000 -RA BR FEW008/// OVC090/// ///TCU 09/09 Q1015 TEMPO 25010KT RA BKN008
  • 151930Z AUTO VRB02KT 5000 -RA BR FEW004/// BKN042/// OVC056/// ///TCU 09/09 Q1016 TEMPO RA BKN008

TAF AMD TAF LFBD
Valide du 15 à 18h jusqu'au 17 à 00h UTC


151803Z 1518/1624 16008KT 7000 BKN030 TX12/1600Z TN08/1606Z
TEMPO 1518/1520 2000 RA OVC002
TEMPO 1520/1603 25010KT 4000 RA BKN008
TEMPO 1606/1610 0600 BCFG
TEMPO 1612/1614 BKN010
TEMPO 1614/1624 24010KT 4000 -SHRA BKN015
PROB30
TEMPO 1616/1618 27015G30KT 2000 TSRA BKN015CB
ATIS : +33 5 57 92 81 04
Pas de NOTAMs connus pour ce terrain.



MET'MAP, la Météo Aéronautique d'un coup d'oeil ! - Copyright ORBIFLY Décembre 2007 - Disclaimer

ORBIFLY MET'MAP TEAM :

Programmation & Développement : Alexandra Zaïnal
Conception & Développement : Baudouin d'Aumeries
Co-Programmation & Développement : Marc-Olivier Méhu
Soutien technique & logistique : Manuel Goepfert

Contact : metmap@orbifly.com




SOURCES & CREDITS :

   NOAA